KCCY

Northeast Iowa Regional Airport

Charles City, Iowa, USA
METAR KCCY 230055Z AUTO 32010G15KT 10SM CLR 11/M02 A3014 RMK AO2
Observed Flight Rules
Oct-23 @ 00:55 UTC (11 minutes ago) Visual Flight Rules
Wind Visibility Clouds
320° at 10 knots
 Gusting to 15 knots
10 miles
  • Clear skies
Temperatures Readings
Current 11°C / 52°F
Dewpoint -2°C / 28°F
Humidity 41%
Altimeter 30.14" Hg
Pressure 1021 hPa
Elevation 343
METAR KCCY 230055Z AUTO 32010G15KT 10SM CLR 11/M02 A3014 RMK AO2
Observed Flight Rules
Oct-23 @ 00:55 UTC
(11 minutes ago)
VFR
Wind Visibility
320° at 10 knots
 Gusting to 15 knots
10 miles
Clouds
  • Clear skies
Temperature Dewpoint
11°C / 52°F -2°C / 28°F
Humidity Altimeter Pressure
41% 30.14" Hg 1021 hPa